Time;durP1;ratioP1;P1;durP2;ratioP2;P2;SDS_P1;SDS_P2;PMS_P1;PMS_P2;Temp;Humidity;BMP_temperature;BMP_pressure;BME280_temperature;BME280_humidity;BME280_pressure;Samples;Min_cycle;Max_cycle;Signal;HPM_P1;HPM_P2
2021/07/26 00:00:01;;;;;;;0.80;0.70;;;;;;;19.04;100.00;-2914.53;5046747;28;20862;-71
2021/07/26 00:02:37;;;;;;;0.80;0.80;;;;;;;19.00;100.00;1159.03;5046260;28;20981;-72
2021/07/26 00:05:06;;;;;;;0.70;0.70;;;;;;;18.97;100.00;4311.28;5028885;28;20453;-72
2021/07/26 00:07:33;;;;;;;0.73;0.70;;;;;;;18.90;100.00;6766.56;5037922;28;20475;-72
2021/07/26 00:10:03;;;;;;;0.73;0.70;;;;;;;18.78;100.00;10912.84;5028652;28;20474;-71
2021/07/26 00:12:31;;;;;;;0.77;0.70;;;;;;;18.67;100.00;15698.97;5045823;28;20465;-71
2021/07/26 00:15:00;;;;;;;0.80;0.60;;;;;;;18.55;100.00;20772.81;5026509;28;20502;-72
2021/07/26 00:17:27;;;;;;;0.70;0.70;;;;;;;18.44;100.00;27463.53;5026944;28;20472;-72
2021/07/26 00:19:53;;;;;;;0.80;0.70;;;;;;;18.43;100.00;33552.72;5027393;28;20884;-72
2021/07/26 00:22:20;;;;;;;0.80;0.60;;;;;;;18.43;100.00;38814.16;5026163;28;20458;-72
2021/07/26 00:24:48;;;;;;;0.80;0.70;;;;;;;18.35;100.00;43157.34;5029180;28;20500;-72
2021/07/26 00:27:15;;;;;;;0.70;0.70;;;;;;;18.29;100.00;48016.75;5045888;28;20477;-72
2021/07/26 00:29:42;;;;;;;0.80;0.70;;;;;;;18.34;100.00;51005.09;5022950;28;20484;-71
2021/07/26 00:32:11;;;;;;;0.80;0.70;;;;;;;18.39;100.00;52999.66;5045599;28;20468;-71
2021/07/26 00:34:38;;;;;;;0.73;0.60;;;;;;;18.42;100.00;55327.34;5028849;28;20498;-72
2021/07/26 00:37:05;;;;;;;0.87;0.87;;;;;;;18.49;100.00;57327.53;5046380;28;20867;-71
2021/07/26 00:39:34;;;;;;;0.80;0.70;;;;;;;18.50;100.00;57993.91;5046055;28;20541;-72
2021/07/26 00:42:02;;;;;;;0.70;0.60;;;;;;;18.54;100.00;58995.13;5046378;28;20522;-71
2021/07/26 00:44:30;;;;;;;0.80;0.70;;;;;;;18.62;100.00;59336.09;5044861;28;20461;-72
2021/07/26 00:46:58;;;;;;;0.80;0.70;;;;;;;18.70;100.00;59344.44;5027270;28;20805;-72
2021/07/26 00:49:27;;;;;;;0.80;0.70;;;;;;;18.74;100.00;58682.72;5025628;28;20472;-71
2021/07/26 00:51:56;;;;;;;0.70;0.70;;;;;;;18.81;100.00;57026.88;5025515;28;20446;-71
2021/07/26 00:54:25;;;;;;;0.80;0.80;;;;;;;18.82;100.00;56030.88;5026124;28;20463;-72
2021/07/26 00:56:54;;;;;;;0.80;0.80;;;;;;;18.83;100.00;55034.66;5027306;28;20460;-72
2021/07/26 00:59:21;;;;;;;0.80;0.70;;;;;;;18.97;100.00;53053.31;5027529;28;20479;-71
2021/07/26 01:01:48;;;;;;;0.70;0.60;;;;;;;19.09;100.00;50075.22;5029332;28;20467;-71
2021/07/26 01:04:15;;;;;;;0.70;0.60;;;;;;;19.14;100.00;46429.25;5026769;28;20449;-71
2021/07/26 01:06:44;;;;;;;0.70;0.60;;;;;;;19.13;100.00;42983.91;5027600;28;20449;-71
2021/07/26 01:09:12;;;;;;;0.80;0.70;;;;;;;19.14;100.00;39675.53;5025526;28;20878;-71
2021/07/26 01:11:40;;;;;;;0.70;0.60;;;;;;;19.09;100.00;37451.47;5025048;28;20839;-72
2021/07/26 01:14:07;;;;;;;0.80;0.70;;;;;;;19.01;100.00;37482.50;5027305;28;20443;-72
2021/07/26 01:16:35;;;;;;;0.70;0.60;;;;;;;18.92;100.00;38320.88;5025318;28;20507;-71
2021/07/26 01:19:02;;;;;;;0.70;0.70;;;;;;;18.91;100.00;41357.78;5029568;28;20507;-71
2021/07/26 01:21:31;;;;;;;0.70;0.60;;;;;;;19.01;100.00;44015.16;5047451;28;20513;-71
2021/07/26 01:24:01;;;;;;;0.80;0.80;;;;;;;19.08;100.00;46424.28;5049330;28;20942;-71
2021/07/26 01:26:29;;;;;;;0.70;0.60;;;;;;;19.05;100.00;48412.13;5050775;28;20450;-71
2021/07/26 01:28:58;;;;;;;0.70;0.60;;;;;;;19.04;100.00;50402.75;5032502;28;20463;-72
2021/07/26 01:31:25;;;;;;;0.70;0.70;;;;;;;19.02;100.00;51397.09;5049388;28;20463;-71
2021/07/26 01:33:53;;;;;;;0.80;0.70;;;;;;;19.03;100.00;53059.41;5049928;28;20971;-71
2021/07/26 01:36:22;;;;;;;0.80;0.70;;;;;;;19.08;100.00;54393.09;5047028;28;20466;-72
2021/07/26 01:38:52;;;;;;;0.70;0.60;;;;;;;19.07;100.00;55057.03;5049970;28;20476;-72
2021/07/26 01:41:21;;;;;;;0.70;0.70;;;;;;;19.03;100.00;55718.13;5049431;28;20469;-72
2021/07/26 01:47:13;;;;;;;0.80;0.70;;;;;;;18.96;100.00;59370.63;5037214;28;20473;-71
2021/07/26 01:49:52;;;;;;;0.70;0.60;;;;;;;18.96;100.00;61035.28;5021407;28;21028;-72
2021/07/26 01:52:21;;;;;;;0.80;0.70;;;;;;;18.97;100.00;62035.56;5050415;28;20460;-71
2021/07/26 01:54:50;;;;;;;0.80;0.70;;;;;;;18.89;100.00;63359.38;5029676;28;20464;-72
2021/07/26 01:57:17;;;;;;;0.80;0.77;;;;;;;18.76;100.00;64678.84;5012122;28;20512;-71
2021/07/26 01:59:46;;;;;;;0.80;0.70;;;;;;;18.64;100.00;65664.97;5012497;28;20476;-72
2021/07/26 02:02:14;;;;;;;0.80;0.70;;;;;;;18.50;100.00;67982.78;5039235;28;20973;-72
2021/07/26 02:04:42;;;;;;;0.70;0.70;;;;;;;18.43;100.00;69975.53;5031458;28;20988;-72
2021/07/26 02:07:09;;;;;;;0.80;0.70;;;;;;;18.42;100.00;71308.34;5027747;28;20455;-72
2021/07/26 02:09:36;;;;;;;1.57;1.47;;;;;;;18.43;100.00;72978.66;5044017;28;20476;-73
2021/07/26 02:12:05;;;;;;;0.70;0.70;;;;;;;18.40;100.00;74311.28;5049460;28;20499;-72
2021/07/26 02:14:32;;;;;;;0.70;0.60;;;;;;;18.39;100.00;75645.63;5048683;28;20472;-71
2021/07/26 02:16:59;;;;;;;0.70;0.70;;;;;;;18.57;100.00;76337.84;5049197;28;20959;-72
2021/07/26 02:19:26;;;;;;;0.70;0.70;;;;;;;18.66;100.00;76349.81;5049531;28;20470;-71
2021/07/26 02:21:53;;;;;;;0.70;0.60;;;;;;;18.68;100.00;76686.84;5030770;28;20967;-71
2021/07/26 02:24:20;;;;;;;0.70;0.60;;;;;;;18.71;100.00;76690.22;5029427;28;20491;-72
2021/07/26 02:26:46;;;;;;;0.80;0.70;;;;;;;18.79;100.00;76700.88;5033448;28;20453;-71
2021/07/26 02:29:15;;;;;;;0.70;0.60;;;;;;;18.84;100.00;76373.06;5047413;28;20450;-71
2021/07/26 02:31:42;;;;;;;0.70;0.60;;;;;;;18.85;100.00;76373.72;5030034;28;20507;-72
2021/07/26 02:34:08;;;;;;;0.70;0.70;;;;;;;18.90;100.00;76380.38;5030094;28;20819;-71
2021/07/26 02:36:35;;;;;;;0.70;0.63;;;;;;;18.88;100.00;76043.94;5048124;28;20454;-72
2021/07/26 02:39:02;;;;;;;0.70;0.60;;;;;;;18.80;100.00;75699.63;5048114;28;20915;-71
2021/07/26 02:41:29;;;;;;;0.80;0.70;;;;;;;18.69;100.00;75685.13;5047363;28;20552;-72
2021/07/26 02:43:56;;;;;;;0.70;0.60;;;;;;;18.63;100.00;75677.22;5041056;28;20513;-72
2021/07/26 02:46:24;;;;;;;0.80;0.70;;;;;;;18.68;100.00;76018.13;5029330;28;20505;-71
2021/07/26 02:48:51;;;;;;;0.70;0.60;;;;;;;18.61;100.00;76008.88;5030354;28;20555;-72
2021/07/26 02:51:18;;;;;;;0.70;0.60;;;;;;;18.52;100.00;75996.94;5048395;28;20450;-72
2021/07/26 02:53:45;;;;;;;0.70;0.70;;;;;;;18.40;100.00;76649.50;5047571;28;20470;-72
2021/07/26 02:56:12;;;;;;;0.80;0.80;;;;;;;18.31;100.00;76972.38;5047698;28;20506;-72
2021/07/26 02:58:38;;;;;;;0.73;0.67;;;;;;;18.26;100.00;77300.59;5028185;28;20450;-72
2021/07/26 03:01:09;;;;;;;0.70;0.63;;;;;;;18.21;100.00;77961.66;5029727;28;20456;-72
2021/07/26 03:03:37;;;;;;;0.73;0.67;;;;;;;18.15;100.00;78287.75;5046829;28;20463;-72
2021/07/26 03:06:04;;;;;;;0.70;0.70;;;;;;;18.07;100.00;78612.47;5047082;28;20448;-71
2021/07/26 03:08:31;;;;;;;0.70;0.67;;;;;;;18.00;100.00;78936.44;5047810;28;20459;-71
2021/07/26 03:10:59;;;;;;;0.80;0.70;;;;;;;17.91;100.00;80261.19;5048774;28;20557;-72
2021/07/26 03:13:26;;;;;;;0.70;0.70;;;;;;;17.91;100.00;80929.91;5047379;28;21052;-71
2021/07/26 03:15:53;;;;;;;0.70;0.60;;;;;;;17.88;100.00;81594.50;5048599;28;20874;-72
2021/07/26 03:18:20;;;;;;;0.77;0.70;;;;;;;17.85;100.00;81925.41;5048170;28;20461;-72
2021/07/26 03:20:49;;;;;;;0.70;0.70;;;;;;;17.84;100.00;81923.97;5046484;28;20468;-72
2021/07/26 03:23:15;;;;;;;0.73;0.60;;;;;;;17.80;100.00;81919.00;5048137;28;20462;-71
2021/07/26 03:25:43;;;;;;;0.70;0.70;;;;;;;17.86;100.00;81927.53;5046928;28;20544;-71
2021/07/26 03:28:10;;;;;;;0.80;0.70;;;;;;;17.90;100.00;81931.81;5047869;28;20496;-72
2021/07/26 03:30:37;;;;;;;0.70;0.60;;;;;;;17.86;100.00;81927.53;5048435;28;20444;-72
2021/07/26 03:33:04;;;;;;;0.80;0.77;;;;;;;17.80;100.00;81584.59;5048216;28;20445;-71
2021/07/26 03:35:32;;;;;;;0.70;0.70;;;;;;;17.77;100.00;81580.31;5046552;28;20475;-72
2021/07/26 03:38:00;;;;;;;0.70;0.67;;;;;;;17.75;100.00;82246.31;5035356;28;20819;-71
2021/07/26 03:40:28;;;;;;;0.80;0.70;;;;;;;17.78;100.00;82585.06;5027994;28;20474;-72
2021/07/26 03:42:56;;;;;;;0.80;0.70;;;;;;;17.92;100.00;82269.16;5027859;28;20456;-72
2021/07/26 03:45:24;;;;;;;0.70;0.67;;;;;;;17.92;100.00;81935.34;5038647;28;20566;-71
2021/07/26 03:47:51;;;;;;;0.80;0.70;;;;;;;17.90;100.00;81931.81;5029371;28;21006;-71
2021/07/26 03:50:18;;;;;;;0.70;0.70;;;;;;;17.91;100.00;81598.75;5047421;28;21030;-72
2021/07/26 03:52:47;;;;;;;0.80;0.70;;;;;;;17.89;100.00;80927.06;5046906;28;20517;-72
2021/07/26 03:55:18;;;;;;;0.70;0.70;;;;;;;17.95;100.00;80601.81;5044694;28;20465;-72
2021/07/26 03:57:46;;;;;;;0.80;0.70;;;;;;;18.02;100.00;80276.50;5042444;28;20478;-71
2021/07/26 04:00:15;;;;;;;0.70;0.60;;;;;;;18.02;100.00;79942.13;5026779;28;21000;-71
2021/07/26 04:02:43;;;;;;;0.70;0.70;;;;;;;18.13;100.00;79622.31;5026166;28;20487;-71
2021/07/26 04:05:19;;;;;;;0.70;0.70;;;;;;;18.24;100.00;78969.38;5045984;28;20489;-71
2021/07/26 04:07:47;;;;;;;0.70;0.63;;;;;;;18.32;100.00;78979.69;5045243;28;20451;-72
2021/07/26 04:10:16;;;;;;;0.70;0.70;;;;;;;18.31;100.00;78643.91;5033331;28;20494;-72
2021/07/26 04:12:47;;;;;;;0.70;0.70;;;;;;;18.39;100.00;78320.44;5045689;28;20466;-72
2021/07/26 04:15:14;;;;;;;0.80;0.80;;;;;;;18.36;100.00;77981.97;5044931;28;20505;-72
2021/07/26 04:17:41;;;;;;;0.70;0.60;;;;;;;18.35;100.00;77981.28;5025738;28;20463;-73
2021/07/26 04:20:09;;;;;;;0.70;0.60;;;;;;;18.44;100.00;77657.75;5026830;28;21072;-72
2021/07/26 04:22:36;;;;;;;0.70;0.60;;;;;;;18.50;100.00;77665.88;5026522;28;20491;-72
2021/07/26 04:25:04;;;;;;;0.70;0.70;;;;;;;18.46;100.00;77326.13;5028003;28;20723;-71
2021/07/26 04:27:35;;;;;;;0.70;0.60;;;;;;;18.47;100.00;77328.13;5027958;28;20822;-71
2021/07/26 04:30:04;;;;;;;0.70;0.60;;;;;;;18.41;100.00;76985.78;5045465;28;20907;-72
2021/07/26 04:32:40;;;;;;;0.70;0.60;;;;;;;18.44;100.00;76989.78;5045922;28;20959;-72
2021/07/26 04:35:08;;;;;;;0.73;0.70;;;;;;;18.47;100.00;76993.13;5044288;28;20455;-71
2021/07/26 04:37:35;;;;;;;0.70;0.63;;;;;;;18.46;100.00;76658.19;5025624;28;20462;-72
2021/07/26 04:40:04;;;;;;;0.70;0.60;;;;;;;18.46;100.00;76992.47;5027385;28;20473;-72
2021/07/26 04:42:31;;;;;;;0.70;0.60;;;;;;;18.46;100.00;76991.78;5026050;28;20456;-72
2021/07/26 04:44:59;;;;;;;0.70;0.60;;;;;;;18.54;100.00;76668.84;5028181;28;20464;-72
2021/07/26 04:47:26;;;;;;;0.77;0.70;;;;;;;18.63;100.00;77014.56;5027294;28;20635;-72
2021/07/26 04:49:53;;;;;;;0.80;0.70;;;;;;;18.63;100.00;77014.56;5025204;28;20464;-72
2021/07/26 04:52:19;;;;;;;0.70;0.60;;;;;;;18.71;100.00;76690.22;5034666;28;20462;-72
2021/07/26 04:54:47;;;;;;;0.80;0.70;;;;;;;18.78;100.00;76700.22;5047179;28;20993;-72
2021/07/26 04:57:14;;;;;;;0.70;0.60;;;;;;;18.92;100.00;77052.06;5048809;28;20451;-71
2021/07/26 04:59:41;;;;;;;0.70;0.60;;;;;;;19.03;100.00;76732.22;5050444;28;20570;-72
2021/07/26 05:02:11;;;;;;;0.70;0.70;;;;;;;19.16;100.00;76748.91;5050057;28;20463;-71
2021/07/26 05:04:38;;;;;;;0.80;0.70;;;;;;;19.29;100.00;76432.22;5049807;28;20991;-71
2021/07/26 05:07:06;;;;;;;0.70;0.70;;;;;;;19.40;100.00;76780.25;5050435;28;20796;-72
2021/07/26 05:09:37;;;;;;;0.70;0.60;;;;;;;19.51;100.00;76460.78;5050094;28;20480;-71
2021/07/26 05:12:07;;;;;;;0.70;0.60;;;;;;;19.68;100.00;75812.97;5050895;28;20444;-72
2021/07/26 05:14:34;;;;;;;0.70;0.60;;;;;;;19.79;100.00;73818.63;5049423;28;20447;-71
2021/07/26 05:17:01;;;;;;;0.70;0.70;;;;;;;19.87;100.00;72489.53;5049747;28;20479;-71
2021/07/26 05:19:29;;;;;;;0.70;0.60;;;;;;;19.90;100.00;69817.28;5039725;28;20468;-72
2021/07/26 05:21:57;;;;;;;0.70;0.60;;;;;;;19.97;100.00;67485.72;5030956;28;20494;-71
2021/07/26 05:24:25;;;;;;;0.80;0.70;;;;;;;19.94;100.00;63474.53;5030320;28;20867;-71
2021/07/26 05:26:59;;;;;;;0.90;0.90;;;;;;;20.07;100.00;59484.69;5029450;28;20845;-71
2021/07/26 05:29:26;;;;;;;0.80;0.70;;;;;;;20.14;100.00;49501.59;5030952;28;20445;-71
2021/07/26 05:31:54;;;;;;;0.70;0.60;;;;;;;20.02;100.00;44176.97;5038205;28;20451;-71
2021/07/26 05:34:21;;;;;;;0.80;0.70;;;;;;;20.06;100.00;35482.47;5050145;28;20794;-72
2021/07/26 05:36:49;;;;;;;0.80;0.70;;;;;;;20.14;100.00;23006.19;5034970;28;20464;-71
2021/07/26 05:39:17;;;;;;;0.70;0.60;;;;;;;20.25;100.00;11218.38;5031936;28;21447;-71
2021/07/26 05:41:44;;;;;;;0.70;0.60;;;;;;;20.24;100.00;916.47;5048491;28;20451;-71
2021/07/26 05:44:12;;;;;;;0.70;0.60;;;;;;;20.30;100.00;-5578.28;5050242;28;20527;-71
2021/07/26 05:46:39;;;;;;;0.70;0.60;;;;;;;20.47;100.00;-9867.94;5050077;28;20501;-72
2021/07/26 05:49:06;;;;;;;0.70;0.60;;;;;;;20.54;100.00;-15485.88;5049122;28;20491;-71
2021/07/26 05:51:33;;;;;;;0.73;0.60;;;;;;;20.57;100.00;-19567.41;5048947;28;20456;-72
2021/07/26 05:54:01;;;;;;;0.70;0.60;;;;;;;20.63;100.00;-21240.56;5034540;28;20468;-72
2021/07/26 05:56:30;;;;;;;0.80;0.70;;;;;;;20.79;100.00;-21244.66;5029413;28;20430;-71
2021/07/26 05:58:57;;;;;;;0.77;0.70;;;;;;;20.90;100.00;-21247.66;5036789;28;20514;-71
2021/07/26 06:04:09;;;;;;;0.70;0.60;;;;;;;20.93;100.00;-21248.59;5030349;28;20915;-71
2021/07/26 06:06:39;;;;;;;0.80;0.70;;;;;;;21.09;100.00;-21252.84;5033386;28;20452;-71
2021/07/26 06:09:08;;;;;;;0.70;0.67;;;;;;;21.18;100.00;-21255.28;5047984;28;21202;-72
2021/07/26 06:11:35;;;;;;;0.70;0.60;;;;;;;21.30;100.00;-21258.28;5040486;28;20514;-71
2021/07/26 06:14:03;;;;;;;0.80;0.63;;;;;;;21.29;100.00;-21258.03;5032512;28;20434;-72
2021/07/26 06:16:30;;;;;;;0.77;0.70;;;;;;;21.51;100.00;-21264.03;5048486;28;20446;-71
2021/07/26 06:18:58;;;;;;;0.80;0.70;;;;;;;21.75;100.00;-21270.28;5029971;28;20485;-71
2021/07/26 06:21:25;;;;;;;0.70;0.67;;;;;;;21.89;100.00;-21274.09;5028311;28;20484;-72
2021/07/26 06:23:52;;;;;;;0.70;0.60;;;;;;;21.87;100.00;-21273.56;5034627;28;20434;-72
2021/07/26 06:26:20;;;;;;;0.70;0.60;;;;;;;21.87;100.00;-21273.56;5038693;28;20860;-71
2021/07/26 06:28:49;;;;;;;0.70;0.63;;;;;;;21.67;100.00;-21268.25;5036395;28;20522;-72
2021/07/26 06:31:16;;;;;;;0.70;0.60;;;;;;;21.77;100.00;-21270.97;5036879;28;20476;-72
2021/07/26 06:33:43;;;;;;;0.70;0.70;;;;;;;21.77;100.00;-21270.84;5048782;28;20426;-72
2021/07/26 06:36:10;;;;;;;0.70;0.70;;;;;;;21.77;100.00;-21270.84;5031686;28;20461;-73
2021/07/26 06:38:37;;;;;;;0.80;0.70;;;;;;;21.64;100.00;-21267.44;5026824;28;20460;-72
2021/07/26 06:41:06;;;;;;;0.73;0.67;;;;;;;21.48;100.00;-21263.06;5028115;28;20454;-72
2021/07/26 06:43:34;;;;;;;0.77;0.67;;;;;;;21.43;100.00;-21261.84;5033702;28;20438;-71
2021/07/26 06:46:04;;;;;;;0.80;0.70;;;;;;;21.38;100.00;-21260.47;5047619;28;20447;-72
2021/07/26 06:48:31;;;;;;;0.70;0.60;;;;;;;21.27;100.00;-21257.47;5033944;28;20518;-72
2021/07/26 06:50:58;;;;;;;0.80;0.70;;;;;;;21.34;100.00;-21259.38;5029414;28;20435;-72
2021/07/26 06:53:25;;;;;;;0.70;0.60;;;;;;;21.36;100.00;-21259.94;5016816;28;20935;-71
2021/07/26 06:55:53;;;;;;;0.77;0.70;;;;;;;21.35;100.00;-21259.66;5028605;28;20507;-71
2021/07/26 06:58:20;;;;;;;0.70;0.60;;;;;;;21.21;100.00;-21255.97;5030498;28;20463;-70
2021/07/26 07:00:48;;;;;;;0.80;0.70;;;;;;;21.19;100.00;-21255.56;5047655;28;20467;-72
2021/07/26 07:03:19;;;;;;;0.70;0.60;;;;;;;21.28;100.00;-21257.88;5049087;28;20530;-71
2021/07/26 07:05:46;;;;;;;0.70;0.60;;;;;;;21.29;100.00;-21258.03;5048901;28;20996;-71
2021/07/26 07:08:13;;;;;;;0.80;0.70;;;;;;;21.21;100.00;-21256.09;5047737;28;20853;-72
2021/07/26 07:10:40;;;;;;;0.70;0.60;;;;;;;21.23;100.00;-21256.66;5047611;28;20447;-72
2021/07/26 07:13:09;;;;;;;0.70;0.60;;;;;;;21.20;100.00;-21255.69;5048405;28;20540;-71
2021/07/26 07:15:35;;;;;;;0.80;0.70;;;;;;;21.15;100.00;-21254.47;5048942;28;20426;-72
2021/07/26 07:18:04;;;;;;;0.70;0.60;;;;;;;21.04;100.00;-21251.47;5047017;28;20976;-72
2021/07/26 07:20:31;;;;;;;0.77;0.60;;;;;;;21.28;100.00;-21257.88;5043398;28;20453;-71
2021/07/26 07:22:58;;;;;;;0.80;0.70;;;;;;;21.27;100.00;-21257.59;5028911;28;20460;-71
2021/07/26 07:25:25;;;;;;;0.70;0.70;;;;;;;21.44;100.00;-21262.13;5029108;28;20431;-71
2021/07/26 07:27:53;;;;;;;0.70;0.60;;;;;;;21.42;100.00;-21261.56;5028677;28;20420;-71
2021/07/26 07:30:22;;;;;;;0.70;0.60;;;;;;;21.49;100.00;-21263.47;5027802;28;20469;-71
2021/07/26 07:32:51;;;;;;;0.70;0.63;;;;;;;21.91;100.00;-21274.66;5044251;28;20547;-72
2021/07/26 07:35:20;;;;;;;0.73;0.67;;;;;;;22.12;100.00;-21280.38;5046384;28;20474;-71
2021/07/26 07:37:47;;;;;;;0.80;0.70;;;;;;;21.89;100.00;-21274.25;5043388;28;20904;-71
2021/07/26 07:40:14;;;;;;;0.80;0.70;;;;;;;22.24;100.00;-21283.38;5027629;28;20473;-71
2021/07/26 07:42:41;;;;;;;0.70;0.70;;;;;;;22.37;100.00;-21286.91;5027284;28;20466;-71
2021/07/26 07:45:09;;;;;;;0.80;0.60;;;;;;;22.41;100.00;-21288.00;5028561;28;20971;-71
2021/07/26 07:47:36;;;;;;;0.70;0.67;;;;;;;22.48;100.00;-21289.91;5033416;28;20522;-71
2021/07/26 07:50:05;;;;;;;0.70;0.60;;;;;;;22.66;100.00;-21294.81;5031086;28;20460;-71
2021/07/26 07:52:34;;;;;;;0.70;0.60;;;;;;;23.12;100.00;-21307.06;5026684;28;20826;-71
2021/07/26 07:55:02;;;;;;;0.80;0.77;;;;;;;23.28;100.00;-21311.13;5033802;28;20483;-72
2021/07/26 07:57:30;;;;;;;0.80;0.70;;;;;;;23.60;100.00;-21319.84;5028056;28;21031;-71
2021/07/26 07:59:57;;;;;;;0.70;0.60;;;;;;;23.41;100.00;-21314.53;5027613;28;20457;-72
2021/07/26 08:02:24;;;;;;;0.70;0.60;;;;;;;23.78;100.00;-21324.47;5038975;28;20467;-71
2021/07/26 08:04:52;;;;;;;0.70;0.60;;;;;;;23.77;100.00;-21324.31;5048063;28;20486;-71
2021/07/26 08:07:21;;;;;;;0.80;0.60;;;;;;;23.21;100.00;-21309.25;5029315;28;20845;-72
2021/07/26 08:09:50;;;;;;;0.70;0.60;;;;;;;23.46;100.00;-21316.03;5037440;28;20976;-73
2021/07/26 08:12:18;;;;;;;0.77;0.60;;;;;;;23.70;100.00;-21322.44;5034014;28;20485;-72
2021/07/26 08:14:46;;;;;;;0.70;0.60;;;;;;;23.72;100.00;-21322.97;5027523;28;20470;-71
2021/07/26 08:17:13;;;;;;;0.70;0.60;;;;;;;23.84;100.00;-21326.09;5027835;28;20464;-71
2021/07/26 08:19:40;;;;;;;0.73;0.70;;;;;;;24.31;100.00;-21338.72;5028213;28;20837;-72
2021/07/26 08:22:07;;;;;;;0.70;0.60;;;;;;;24.63;100.00;-21347.16;5027876;28;20647;-72
2021/07/26 08:24:33;;;;;;;0.70;0.60;;;;;;;24.26;100.00;-21337.22;5027825;28;20956;-71
2021/07/26 08:27:02;;;;;;;0.70;0.60;;;;;;;24.28;100.00;-21337.78;5025131;28;20449;-72
2021/07/26 08:29:30;;;;;;;0.70;0.60;;;;;;;23.80;100.00;-21325.16;5044362;28;20465;-71
2021/07/26 08:31:57;;;;;;;0.70;0.60;;;;;;;23.94;100.00;-21328.81;5038784;28;20544;-72
2021/07/26 08:34:24;;;;;;;0.70;0.50;;;;;;;23.55;100.00;-21318.34;5026079;28;21041;-72
2021/07/26 08:36:55;;;;;;;0.70;0.60;;;;;;;23.25;100.00;-21310.31;5027734;28;21028;-71
2021/07/26 08:39:22;;;;;;;0.70;0.60;;;;;;;23.26;100.00;-21310.59;5028032;28;20455;-71
2021/07/26 08:41:49;;;;;;;0.80;0.70;;;;;;;23.16;100.00;-21308.00;5027404;28;20471;-71
2021/07/26 08:44:19;;;;;;;0.80;0.60;;;;;;;23.05;100.00;-21305.16;5045203;28;20471;-71
2021/07/26 08:46:48;;;;;;;0.80;0.60;;;;;;;22.88;100.00;-21300.53;5026128;28;20798;-72
2021/07/26 08:49:17;;;;;;;0.80;0.70;;;;;;;23.00;100.00;-21303.78;5026822;28;20475;-71
2021/07/26 08:51:49;;;;;;;0.80;0.70;;;;;;;22.75;100.00;-21297.00;5027024;28;20445;-71
2021/07/26 08:54:18;;;;;;;0.80;0.70;;;;;;;22.79;100.00;-21298.22;5027260;28;20864;-71
2021/07/26 08:56:53;;;;;;;0.80;0.70;;;;;;;22.65;100.00;-21294.41;5027389;28;20466;-71
2021/07/26 08:59:22;;;;;;;0.73;0.60;;;;;;;22.89;100.00;-21300.94;5026743;28;20555;-71
2021/07/26 09:01:53;;;;;;;0.70;0.60;;;;;;;22.93;100.00;-21301.88;5026753;28;20916;-72
2021/07/26 09:04:21;;;;;;;0.80;0.80;;;;;;;23.03;100.00;-21304.47;5043254;28;20459;-72
2021/07/26 09:06:48;;;;;;;0.70;0.60;;;;;;;23.31;100.00;-21311.97;5046658;28;20452;-71
2021/07/26 09:09:15;;;;;;;0.80;0.70;;;;;;;23.22;100.00;-21309.50;5045299;28;21058;-71
2021/07/26 09:11:43;;;;;;;0.80;0.63;;;;;;;23.39;100.00;-21314.28;5045521;28;20486;-72
2021/07/26 09:14:11;;;;;;;0.77;0.60;;;;;;;23.73;100.00;-21323.09;5046883;28;20474;-72
2021/07/26 09:16:40;;;;;;;0.70;0.60;;;;;;;23.80;100.00;-21325.16;5045875;28;20458;-72
2021/07/26 09:19:07;;;;;;;0.70;0.60;;;;;;;23.93;100.00;-21328.53;5038168;28;20479;-71
2021/07/26 09:21:48;;;;;;;0.70;0.60;;;;;;;24.17;100.00;-21334.78;5026300;28;20479;-71
2021/07/26 09:24:22;;;;;;;0.70;0.60;;;;;;;23.93;100.00;-21328.53;5025908;28;20475;-71
2021/07/26 09:26:49;;;;;;;0.70;0.60;;;;;;;24.00;100.00;-21330.44;5027448;28;20460;-71
2021/07/26 09:29:34;;;;;;;0.70;0.60;;;;;;;23.82;100.00;-21325.56;5026356;28;20492;-71
2021/07/26 09:32:05;;;;;;;0.73;0.63;;;;;;;23.76;100.00;-21323.91;5044739;28;20452;-71
2021/07/26 09:34:37;;;;;;;0.70;0.60;;;;;;;23.63;100.00;-21320.66;5045373;28;20463;-72
2021/07/26 09:37:16;;;;;;;0.80;0.60;;;;;;;23.57;100.00;-21318.88;5045912;28;20498;-72
2021/07/26 09:39:43;;;;;;;0.70;0.60;;;;;;;23.63;100.00;-21320.66;5046784;28;20815;-71
2021/07/26 09:42:25;;;;;;;0.70;0.60;;;;;;;23.84;100.00;-21326.09;5042635;28;20475;-71
2021/07/26 09:44:55;;;;;;;0.70;0.50;;;;;;;24.57;100.00;-21345.66;5035938;28;20781;-72
2021/07/26 09:47:23;;;;;;;0.80;0.60;;;;;;;25.23;100.00;-21363.03;5030252;28;20540;-71
2021/07/26 09:49:50;;;;;;;0.70;0.60;;;;;;;25.24;100.00;-21363.44;5043252;28;20501;-71
2021/07/26 09:52:22;;;;;;;0.70;0.60;;;;;;;25.57;100.00;-21371.97;5046751;28;20533;-71
2021/07/26 09:54:52;;;;;;;0.70;0.60;;;;;;;25.58;100.00;-21372.25;5030012;28;20459;-72
2021/07/26 09:57:20;;;;;;;0.70;0.60;;;;;;;25.24;100.00;-21363.28;5030756;28;20784;-72
2021/07/26 09:59:48;;;;;;;0.70;0.60;;;;;;;25.41;100.00;-21367.78;5028990;28;20508;-72
2021/07/26 10:02:18;;;;;;;0.70;0.57;;;;;;;25.65;100.00;-21374.13;5043134;28;20959;-71
2021/07/26 10:04:48;;;;;;;0.70;0.60;;;;;;;25.52;100.00;-21370.88;5048242;28;21832;-71
2021/07/26 10:07:16;;;;;;;0.70;0.60;;;;;;;25.68;100.00;-21374.94;5041145;28;20456;-71
2021/07/26 10:09:44;;;;;;;0.70;0.60;;;;;;;26.60;100.00;-21399.47;5030594;28;20569;-71
2021/07/26 10:12:15;;;;;;;0.70;0.50;;;;;;;27.43;100.00;-21421.50;5049857;28;20475;-71
2021/07/26 10:14:44;;;;;;;0.70;0.50;;;;;;;28.18;100.00;-21441.34;5050271;28;20458;-72
2021/07/26 10:17:12;;;;;;;0.70;0.60;;;;;;;29.12;100.00;-21466.03;5050064;28;20448;-71
2021/07/26 10:19:39;;;;;;;0.70;0.50;;;;;;;29.36;100.00;-21472.38;5049007;28;20983;-71
2021/07/26 10:22:12;;;;;;;0.70;0.50;;;;;;;29.76;100.00;-21482.88;5045250;28;20483;-71
2021/07/26 10:24:46;;;;;;;0.70;0.50;;;;;;;29.52;100.00;-21476.53;5049947;28;20509;-71
2021/07/26 10:27:21;;;;;;;0.70;0.50;;;;;;;29.09;100.00;-21465.25;5049464;28;20460;-71
2021/07/26 10:29:52;;;;;;;0.70;0.50;;;;;;;28.50;100.00;-21449.72;5049356;28;20444;-72
2021/07/26 10:32:33;;;;;;;0.70;0.50;;;;;;;27.22;100.00;-21415.81;5034589;28;21060;-72
2021/07/26 10:35:02;;;;;;;0.70;0.50;;;;;;;26.96;100.00;-21409.06;5029765;28;20444;-71
2021/07/26 10:37:50;;;;;;;0.70;0.50;;;;;;;27.13;100.00;-21413.53;5032819;28;20467;-71
2021/07/26 10:40:19;;;;;;;0.70;0.50;;;;;;;26.70;100.00;-21402.03;5047609;28;20995;-71
2021/07/26 10:42:47;;;;;;;0.70;0.50;;;;;;;26.38;100.00;-21393.63;5049079;28;20579;-71
2021/07/26 10:45:53;;;;;;;0.70;0.57;;;;;;;27.64;100.00;-21426.91;5034015;28;20956;-72
2021/07/26 10:48:33;;;;;;;0.70;0.50;;;;;;;26.71;100.00;-21402.31;5029738;28;20991;-71
2021/07/26 10:51:02;;;;;;;0.70;0.50;;;;;;;26.61;100.00;-21399.72;5029112;28;20530;-71
2021/07/26 10:53:58;;;;;;;0.70;0.50;;;;;;;26.60;100.00;-21399.31;5027788;28;20499;-71
2021/07/26 10:56:25;;;;;;;0.70;0.50;;;;;;;26.81;100.00;-21405.00;5030314;28;20473;-72
2021/07/26 10:59:05;;;;;;;0.70;0.50;;;;;;;27.04;100.00;-21410.97;5028277;28;20461;-72
2021/07/26 11:01:39;;;;;;;0.70;0.60;;;;;;;27.08;100.00;-21412.03;5027500;28;20575;-71
2021/07/26 11:04:32;;;;;;;0.70;0.50;;;;;;;26.70;100.00;-21402.03;5017231;28;20459;-72
2021/07/26 11:07:05;;;;;;;0.70;0.50;;;;;;;26.43;100.00;-21395.00;5047567;28;20543;-72
2021/07/26 11:09:42;;;;;;;0.70;0.50;;;;;;;26.44;100.00;-21395.13;5047181;28;20487;-72
2021/07/26 11:12:15;;;;;;;0.70;0.50;;;;;;;26.86;100.00;-21406.34;5031458;28;20799;-72
2021/07/26 11:15:15;;;;;;;0.70;0.50;;;;;;;27.13;100.00;-21413.53;5048939;28;20443;-72
2021/07/26 11:18:31;;;;;;;0.70;0.60;;;;;;;27.21;100.00;-21415.56;5048535;28;20456;-72
2021/07/26 11:21:07;;;;;;;0.70;0.50;;;;;;;27.04;100.00;-21411.09;5046056;28;20467;-72
2021/07/26 11:23:46;;;;;;;0.70;0.50;;;;;;;27.55;100.00;-21424.47;5047153;28;20467;-71
2021/07/26 11:26:32;;;;;;;0.70;0.50;;;;;;;27.34;100.00;-21418.94;5047324;28;20475;-71
2021/07/26 11:29:01;;;;;;;0.70;0.60;;;;;;;27.48;100.00;-21422.59;5034879;28;20980;-71
2021/07/26 11:31:30;;;;;;;0.77;0.60;;;;;;;27.20;100.00;-21415.28;5046549;28;20959;-72
2021/07/26 11:34:08;;;;;;;0.70;0.60;;;;;;;26.59;100.00;-21399.06;5048390;28;20501;-72
2021/07/26 11:36:36;;;;;;;0.70;0.50;;;;;;;26.20;100.00;-21388.75;5047231;28;20505;-71